sensor_id;sensor_type;location;lat;lon;timestamp;P1;durP1;ratioP1;P2;durP2;ratioP2
4353;SDS011;11018;51.258;6.806;2022-10-31T00:01:09;23.70;;;12.88;;
4353;SDS011;11018;51.258;6.806;2022-10-31T00:03:45;25.90;;;12.43;;
4353;SDS011;11018;51.258;6.806;2022-10-31T00:06:12;22.67;;;11.93;;
4353;SDS011;11018;51.258;6.806;2022-10-31T00:08:38;23.55;;;12.18;;
4353;SDS011;11018;51.258;6.806;2022-10-31T00:11:03;22.52;;;12.48;;
4353;SDS011;11018;51.258;6.806;2022-10-31T00:13:33;30.77;;;13.35;;
4353;SDS011;11018;51.258;6.806;2022-10-31T00:15:59;21.13;;;11.95;;
4353;SDS011;11018;51.258;6.806;2022-10-31T00:18:24;19.13;;;12.13;;
4353;SDS011;11018;51.258;6.806;2022-10-31T00:20:57;22.00;;;12.60;;
4353;SDS011;11018;51.258;6.806;2022-10-31T00:23:26;28.93;;;12.00;;
4353;SDS011;11018;51.258;6.806;2022-10-31T00:25:52;31.52;;;12.70;;
4353;SDS011;11018;51.258;6.806;2022-10-31T00:28:17;22.20;;;11.87;;
4353;SDS011;11018;51.258;6.806;2022-10-31T00:30:43;27.67;;;12.70;;
4353;SDS011;11018;51.258;6.806;2022-10-31T00:33:08;22.92;;;11.88;;
4353;SDS011;11018;51.258;6.806;2022-10-31T00:35:34;29.67;;;13.47;;
4353;SDS011;11018;51.258;6.806;2022-10-31T00:37:59;30.20;;;12.87;;
4353;SDS011;11018;51.258;6.806;2022-10-31T00:40:25;29.87;;;12.47;;
4353;SDS011;11018;51.258;6.806;2022-10-31T00:42:51;22.30;;;12.60;;
4353;SDS011;11018;51.258;6.806;2022-10-31T00:45:16;27.23;;;12.73;;
4353;SDS011;11018;51.258;6.806;2022-10-31T00:47:42;27.57;;;12.20;;
4353;SDS011;11018;51.258;6.806;2022-10-31T00:50:07;28.00;;;12.30;;
4353;SDS011;11018;51.258;6.806;2022-10-31T00:52:33;20.50;;;12.57;;
4353;SDS011;11018;51.258;6.806;2022-10-31T00:54:59;19.92;;;11.60;;
4353;SDS011;11018;51.258;6.806;2022-10-31T00:57:25;20.27;;;11.60;;
4353;SDS011;11018;51.258;6.806;2022-10-31T00:59:50;37.40;;;13.00;;
4353;SDS011;11018;51.258;6.806;2022-10-31T01:02:16;22.63;;;12.33;;
4353;SDS011;11018;51.258;6.806;2022-10-31T01:04:41;24.57;;;12.60;;
4353;SDS011;11018;51.258;6.806;2022-10-31T01:07:07;25.53;;;12.40;;
4353;SDS011;11018;51.258;6.806;2022-10-31T01:09:33;25.70;;;13.40;;
4353;SDS011;11018;51.258;6.806;2022-10-31T01:11:58;21.05;;;12.70;;
4353;SDS011;11018;51.258;6.806;2022-10-31T01:14:24;28.20;;;13.30;;
4353;SDS011;11018;51.258;6.806;2022-10-31T01:16:50;21.05;;;13.02;;
4353;SDS011;11018;51.258;6.806;2022-10-31T01:19:15;24.53;;;13.60;;
4353;SDS011;11018;51.258;6.806;2022-10-31T01:21:41;25.40;;;12.57;;
4353;SDS011;11018;51.258;6.806;2022-10-31T01:24:06;21.92;;;12.63;;
4353;SDS011;11018;51.258;6.806;2022-10-31T01:26:33;22.05;;;12.27;;
4353;SDS011;11018;51.258;6.806;2022-10-31T01:31:33;25.38;;;13.10;;
4353;SDS011;11018;51.258;6.806;2022-10-31T01:34:00;25.38;;;13.25;;
4353;SDS011;11018;51.258;6.806;2022-10-31T01:36:31;29.98;;;15.95;;
4353;SDS011;11018;51.258;6.806;2022-10-31T01:38:59;23.58;;;12.90;;
4353;SDS011;11018;51.258;6.806;2022-10-31T01:41:32;25.52;;;13.95;;
4353;SDS011;11018;51.258;6.806;2022-10-31T01:44:00;24.10;;;13.77;;
4353;SDS011;11018;51.258;6.806;2022-10-31T01:46:35;24.30;;;12.77;;
4353;SDS011;11018;51.258;6.806;2022-10-31T01:49:04;19.95;;;12.18;;
4353;SDS011;11018;51.258;6.806;2022-10-31T01:51:35;24.05;;;12.55;;
4353;SDS011;11018;51.258;6.806;2022-10-31T01:54:07;31.27;;;13.27;;
4353;SDS011;11018;51.258;6.806;2022-10-31T01:56:37;21.92;;;13.60;;
4353;SDS011;11018;51.258;6.806;2022-10-31T01:59:08;24.20;;;13.65;;
4353;SDS011;11018;51.258;6.806;2022-10-31T02:01:35;27.30;;;13.38;;
4353;SDS011;11018;51.258;6.806;2022-10-31T02:04:02;26.40;;;12.40;;
4353;SDS011;11018;51.258;6.806;2022-10-31T02:06:33;22.80;;;12.38;;
4353;SDS011;11018;51.258;6.806;2022-10-31T02:09:04;26.17;;;13.30;;
4353;SDS011;11018;51.258;6.806;2022-10-31T02:11:31;24.00;;;13.10;;
4353;SDS011;11018;51.258;6.806;2022-10-31T02:13:59;22.35;;;12.48;;
4353;SDS011;11018;51.258;6.806;2022-10-31T02:16:27;21.77;;;13.90;;
4353;SDS011;11018;51.258;6.806;2022-10-31T02:18:52;25.50;;;13.67;;
4353;SDS011;11018;51.258;6.806;2022-10-31T02:21:20;24.17;;;12.80;;
4353;SDS011;11018;51.258;6.806;2022-10-31T02:24:32;25.10;;;13.35;;
4353;SDS011;11018;51.258;6.806;2022-10-31T02:27:28;24.73;;;14.60;;
4353;SDS011;11018;51.258;6.806;2022-10-31T02:30:23;24.95;;;14.10;;
4353;SDS011;11018;51.258;6.806;2022-10-31T02:33:02;23.08;;;14.02;;
4353;SDS011;11018;51.258;6.806;2022-10-31T02:35:37;22.77;;;13.60;;
4353;SDS011;11018;51.258;6.806;2022-10-31T02:40:53;23.35;;;13.77;;
4353;SDS011;11018;51.258;6.806;2022-10-31T02:43:47;21.38;;;12.40;;
4353;SDS011;11018;51.258;6.806;2022-10-31T02:46:24;30.65;;;14.20;;
4353;SDS011;11018;51.258;6.806;2022-10-31T02:49:11;24.52;;;12.60;;
4353;SDS011;11018;51.258;6.806;2022-10-31T02:51:48;25.98;;;13.20;;
4353;SDS011;11018;51.258;6.806;2022-10-31T02:54:17;21.65;;;13.48;;
4353;SDS011;11018;51.258;6.806;2022-10-31T02:56:46;22.35;;;13.43;;
4353;SDS011;11018;51.258;6.806;2022-10-31T02:59:13;22.80;;;12.80;;
4353;SDS011;11018;51.258;6.806;2022-10-31T03:01:53;22.67;;;12.07;;
4353;SDS011;11018;51.258;6.806;2022-10-31T03:12:26;22.60;;;13.05;;
4353;SDS011;11018;51.258;6.806;2022-10-31T03:18:00;29.80;;;13.20;;
4353;SDS011;11018;51.258;6.806;2022-10-31T03:20:39;36.42;;;13.60;;
4353;SDS011;11018;51.258;6.806;2022-10-31T03:23:09;24.23;;;14.80;;
4353;SDS011;11018;51.258;6.806;2022-10-31T03:25:38;24.25;;;13.07;;
4353;SDS011;11018;51.258;6.806;2022-10-31T03:28:05;22.38;;;14.02;;
4353;SDS011;11018;51.258;6.806;2022-10-31T03:30:33;25.73;;;13.20;;
4353;SDS011;11018;51.258;6.806;2022-10-31T03:33:03;21.92;;;14.20;;
4353;SDS011;11018;51.258;6.806;2022-10-31T03:35:33;48.35;;;17.95;;
4353;SDS011;11018;51.258;6.806;2022-10-31T03:38:01;31.55;;;14.15;;
4353;SDS011;11018;51.258;6.806;2022-10-31T03:40:28;24.85;;;14.27;;
4353;SDS011;11018;51.258;6.806;2022-10-31T03:42:57;26.00;;;14.30;;
4353;SDS011;11018;51.258;6.806;2022-10-31T03:45:26;21.77;;;12.30;;
4353;SDS011;11018;51.258;6.806;2022-10-31T03:47:54;25.52;;;13.63;;
4353;SDS011;11018;51.258;6.806;2022-10-31T03:50:20;31.25;;;15.27;;
4353;SDS011;11018;51.258;6.806;2022-10-31T03:52:56;28.27;;;15.10;;
4353;SDS011;11018;51.258;6.806;2022-10-31T03:55:30;30.35;;;15.38;;
4353;SDS011;11018;51.258;6.806;2022-10-31T03:58:03;27.50;;;15.40;;
4353;SDS011;11018;51.258;6.806;2022-10-31T04:00:37;26.48;;;14.65;;
4353;SDS011;11018;51.258;6.806;2022-10-31T04:03:06;27.73;;;14.93;;
4353;SDS011;11018;51.258;6.806;2022-10-31T04:05:35;30.98;;;14.85;;
4353;SDS011;11018;51.258;6.806;2022-10-31T04:08:03;33.70;;;14.70;;
4353;SDS011;11018;51.258;6.806;2022-10-31T04:10:32;24.27;;;15.15;;
4353;SDS011;11018;51.258;6.806;2022-10-31T04:13:04;33.42;;;14.93;;
4353;SDS011;11018;51.258;6.806;2022-10-31T04:15:37;23.67;;;14.65;;
4353;SDS011;11018;51.258;6.806;2022-10-31T04:18:04;30.00;;;15.63;;
4353;SDS011;11018;51.258;6.806;2022-10-31T04:20:31;27.35;;;14.98;;
4353;SDS011;11018;51.258;6.806;2022-10-31T04:22:58;33.70;;;15.90;;
4353;SDS011;11018;51.258;6.806;2022-10-31T04:25:25;32.08;;;16.20;;
4353;SDS011;11018;51.258;6.806;2022-10-31T04:27:50;31.50;;;15.17;;
4353;SDS011;11018;51.258;6.806;2022-10-31T04:30:16;31.23;;;16.80;;
4353;SDS011;11018;51.258;6.806;2022-10-31T04:32:41;27.03;;;15.83;;
4353;SDS011;11018;51.258;6.806;2022-10-31T04:35:07;40.63;;;17.80;;
4353;SDS011;11018;51.258;6.806;2022-10-31T04:37:32;33.83;;;16.38;;
4353;SDS011;11018;51.258;6.806;2022-10-31T04:39:58;33.20;;;17.17;;
4353;SDS011;11018;51.258;6.806;2022-10-31T04:42:23;32.40;;;15.53;;
4353;SDS011;11018;51.258;6.806;2022-10-31T04:44:49;26.33;;;15.03;;
4353;SDS011;11018;51.258;6.806;2022-10-31T04:47:14;27.90;;;16.75;;
4353;SDS011;11018;51.258;6.806;2022-10-31T04:49:40;34.23;;;17.47;;
4353;SDS011;11018;51.258;6.806;2022-10-31T04:52:05;37.07;;;17.50;;
4353;SDS011;11018;51.258;6.806;2022-10-31T04:54:33;32.80;;;17.80;;
4353;SDS011;11018;51.258;6.806;2022-10-31T04:56:58;34.23;;;16.10;;
4353;SDS011;11018;51.258;6.806;2022-10-31T04:59:24;30.40;;;16.23;;
4353;SDS011;11018;51.258;6.806;2022-10-31T05:01:49;30.45;;;16.65;;
4353;SDS011;11018;51.258;6.806;2022-10-31T05:04:15;28.60;;;16.43;;
4353;SDS011;11018;51.258;6.806;2022-10-31T05:06:40;27.80;;;16.03;;
4353;SDS011;11018;51.258;6.806;2022-10-31T05:09:06;34.33;;;16.80;;
4353;SDS011;11018;51.258;6.806;2022-10-31T05:11:31;26.10;;;15.80;;
4353;SDS011;11018;51.258;6.806;2022-10-31T05:13:57;28.48;;;14.85;;
4353;SDS011;11018;51.258;6.806;2022-10-31T05:16:22;31.80;;;16.37;;
4353;SDS011;11018;51.258;6.806;2022-10-31T05:18:48;30.50;;;16.50;;
4353;SDS011;11018;51.258;6.806;2022-10-31T05:21:13;30.13;;;16.90;;
4353;SDS011;11018;51.258;6.806;2022-10-31T05:23:39;35.83;;;17.40;;
4353;SDS011;11018;51.258;6.806;2022-10-31T05:26:04;24.53;;;15.27;;
4353;SDS011;11018;51.258;6.806;2022-10-31T05:28:30;31.30;;;16.43;;
4353;SDS011;11018;51.258;6.806;2022-10-31T05:30:55;27.13;;;16.50;;
4353;SDS011;11018;51.258;6.806;2022-10-31T05:33:21;36.72;;;17.30;;
4353;SDS011;11018;51.258;6.806;2022-10-31T05:35:46;32.80;;;16.20;;
4353;SDS011;11018;51.258;6.806;2022-10-31T05:38:12;32.13;;;15.48;;
4353;SDS011;11018;51.258;6.806;2022-10-31T05:40:38;28.13;;;15.70;;
4353;SDS011;11018;51.258;6.806;2022-10-31T05:43:03;28.33;;;15.70;;
4353;SDS011;11018;51.258;6.806;2022-10-31T05:45:29;28.77;;;16.30;;
4353;SDS011;11018;51.258;6.806;2022-10-31T05:47:55;28.30;;;16.10;;
4353;SDS011;11018;51.258;6.806;2022-10-31T05:50:23;33.22;;;16.83;;
4353;SDS011;11018;51.258;6.806;2022-10-31T05:52:56;28.23;;;16.60;;
4353;SDS011;11018;51.258;6.806;2022-10-31T05:55:24;29.83;;;17.10;;
4353;SDS011;11018;51.258;6.806;2022-10-31T05:57:50;34.92;;;16.55;;
4353;SDS011;11018;51.258;6.806;2022-10-31T06:00:17;30.58;;;17.35;;
4353;SDS011;11018;51.258;6.806;2022-10-31T06:02:42;30.53;;;16.30;;
4353;SDS011;11018;51.258;6.806;2022-10-31T06:05:08;29.37;;;16.60;;
4353;SDS011;11018;51.258;6.806;2022-10-31T06:07:34;32.83;;;17.33;;
4353;SDS011;11018;51.258;6.806;2022-10-31T06:10:00;28.73;;;17.30;;
4353;SDS011;11018;51.258;6.806;2022-10-31T06:12:27;33.75;;;16.85;;
4353;SDS011;11018;51.258;6.806;2022-10-31T06:14:53;35.97;;;17.90;;
4353;SDS011;11018;51.258;6.806;2022-10-31T06:17:18;33.77;;;20.00;;
4353;SDS011;11018;51.258;6.806;2022-10-31T06:19:44;34.15;;;17.13;;
4353;SDS011;11018;51.258;6.806;2022-10-31T06:22:10;38.33;;;17.25;;
4353;SDS011;11018;51.258;6.806;2022-10-31T06:24:38;35.60;;;17.70;;
4353;SDS011;11018;51.258;6.806;2022-10-31T06:27:04;27.58;;;16.00;;
4353;SDS011;11018;51.258;6.806;2022-10-31T06:29:30;42.55;;;17.13;;
4353;SDS011;11018;51.258;6.806;2022-10-31T06:31:56;33.75;;;18.30;;
4353;SDS011;11018;51.258;6.806;2022-10-31T06:34:22;36.10;;;19.10;;
4353;SDS011;11018;51.258;6.806;2022-10-31T06:36:47;32.65;;;17.23;;
4353;SDS011;11018;51.258;6.806;2022-10-31T06:39:13;31.10;;;16.85;;
4353;SDS011;11018;51.258;6.806;2022-10-31T06:41:39;29.08;;;17.00;;
4353;SDS011;11018;51.258;6.806;2022-10-31T06:44:06;33.20;;;17.27;;
4353;SDS011;11018;51.258;6.806;2022-10-31T06:46:32;31.25;;;17.95;;
4353;SDS011;11018;51.258;6.806;2022-10-31T06:48:58;36.85;;;18.02;;
4353;SDS011;11018;51.258;6.806;2022-10-31T06:51:23;42.33;;;19.13;;
4353;SDS011;11018;51.258;6.806;2022-10-31T06:53:49;38.67;;;19.50;;
4353;SDS011;11018;51.258;6.806;2022-10-31T06:56:14;31.70;;;18.73;;
4353;SDS011;11018;51.258;6.806;2022-10-31T06:58:40;36.33;;;19.30;;
4353;SDS011;11018;51.258;6.806;2022-10-31T07:01:06;36.23;;;17.90;;
4353;SDS011;11018;51.258;6.806;2022-10-31T07:03:31;31.30;;;18.40;;
4353;SDS011;11018;51.258;6.806;2022-10-31T07:05:57;36.05;;;18.00;;
4353;SDS011;11018;51.258;6.806;2022-10-31T07:08:23;35.30;;;18.10;;
4353;SDS011;11018;51.258;6.806;2022-10-31T07:10:52;34.30;;;18.95;;
4353;SDS011;11018;51.258;6.806;2022-10-31T07:13:20;33.22;;;17.90;;
4353;SDS011;11018;51.258;6.806;2022-10-31T07:15:50;30.23;;;17.33;;
4353;SDS011;11018;51.258;6.806;2022-10-31T07:18:20;31.00;;;18.10;;
4353;SDS011;11018;51.258;6.806;2022-10-31T07:20:46;27.73;;;17.50;;
4353;SDS011;11018;51.258;6.806;2022-10-31T07:23:12;29.00;;;17.60;;
4353;SDS011;11018;51.258;6.806;2022-10-31T07:25:38;34.40;;;17.60;;
4353;SDS011;11018;51.258;6.806;2022-10-31T07:28:04;33.60;;;17.20;;
4353;SDS011;11018;51.258;6.806;2022-10-31T07:30:31;29.95;;;18.40;;
4353;SDS011;11018;51.258;6.806;2022-10-31T07:32:56;35.65;;;18.40;;
4353;SDS011;11018;51.258;6.806;2022-10-31T07:35:23;35.23;;;19.13;;
4353;SDS011;11018;51.258;6.806;2022-10-31T07:37:50;28.65;;;17.80;;
4353;SDS011;11018;51.258;6.806;2022-10-31T07:40:16;29.40;;;17.47;;
4353;SDS011;11018;51.258;6.806;2022-10-31T07:42:45;28.58;;;16.95;;
4353;SDS011;11018;51.258;6.806;2022-10-31T07:45:14;34.72;;;19.20;;
4353;SDS011;11018;51.258;6.806;2022-10-31T07:47:42;32.95;;;19.13;;
4353;SDS011;11018;51.258;6.806;2022-10-31T07:50:13;37.67;;;19.45;;
4353;SDS011;11018;51.258;6.806;2022-10-31T07:52:39;35.95;;;19.90;;
4353;SDS011;11018;51.258;6.806;2022-10-31T07:55:05;32.60;;;20.37;;
4353;SDS011;11018;51.258;6.806;2022-10-31T07:57:31;33.47;;;19.97;;
4353;SDS011;11018;51.258;6.806;2022-10-31T07:59:57;36.70;;;19.60;;
4353;SDS011;11018;51.258;6.806;2022-10-31T08:02:23;35.20;;;18.90;;
4353;SDS011;11018;51.258;6.806;2022-10-31T08:04:49;31.83;;;18.23;;
4353;SDS011;11018;51.258;6.806;2022-10-31T08:07:15;46.42;;;21.67;;
4353;SDS011;11018;51.258;6.806;2022-10-31T08:09:40;43.10;;;21.40;;
4353;SDS011;11018;51.258;6.806;2022-10-31T08:12:06;38.80;;;20.20;;
4353;SDS011;11018;51.258;6.806;2022-10-31T08:14:32;39.93;;;21.03;;
4353;SDS011;11018;51.258;6.806;2022-10-31T08:16:57;35.67;;;20.20;;
4353;SDS011;11018;51.258;6.806;2022-10-31T08:19:23;39.00;;;20.13;;
4353;SDS011;11018;51.258;6.806;2022-10-31T08:21:51;47.73;;;22.73;;
4353;SDS011;11018;51.258;6.806;2022-10-31T08:24:19;35.83;;;20.10;;
4353;SDS011;11018;51.258;6.806;2022-10-31T08:26:48;39.72;;;21.00;;
4353;SDS011;11018;51.258;6.806;2022-10-31T08:29:14;51.80;;;22.20;;
4353;SDS011;11018;51.258;6.806;2022-10-31T08:31:40;36.85;;;20.58;;
4353;SDS011;11018;51.258;6.806;2022-10-31T08:34:10;39.25;;;21.67;;
4353;SDS011;11018;51.258;6.806;2022-10-31T08:36:36;33.67;;;19.98;;
4353;SDS011;11018;51.258;6.806;2022-10-31T08:39:02;44.50;;;21.50;;
4353;SDS011;11018;51.258;6.806;2022-10-31T08:41:27;40.20;;;20.43;;
4353;SDS011;11018;51.258;6.806;2022-10-31T08:43:53;46.05;;;20.60;;
4353;SDS011;11018;51.258;6.806;2022-10-31T08:46:19;38.47;;;18.67;;
4353;SDS011;11018;51.258;6.806;2022-10-31T08:48:47;35.97;;;19.40;;
4353;SDS011;11018;51.258;6.806;2022-10-31T08:51:13;37.55;;;19.27;;
4353;SDS011;11018;51.258;6.806;2022-10-31T08:53:39;40.40;;;19.55;;
4353;SDS011;11018;51.258;6.806;2022-10-31T08:56:05;41.55;;;19.13;;
4353;SDS011;11018;51.258;6.806;2022-10-31T08:58:30;37.60;;;19.40;;
4353;SDS011;11018;51.258;6.806;2022-10-31T09:00:58;38.73;;;19.17;;
4353;SDS011;11018;51.258;6.806;2022-10-31T09:03:25;38.95;;;20.10;;
4353;SDS011;11018;51.258;6.806;2022-10-31T09:05:59;34.50;;;18.80;;
4353;SDS011;11018;51.258;6.806;2022-10-31T09:08:28;38.75;;;19.80;;
4353;SDS011;11018;51.258;6.806;2022-10-31T09:10:58;32.90;;;17.98;;
4353;SDS011;11018;51.258;6.806;2022-10-31T09:13:24;35.10;;;18.15;;
4353;SDS011;11018;51.258;6.806;2022-10-31T09:15:50;38.80;;;19.42;;
4353;SDS011;11018;51.258;6.806;2022-10-31T09:18:17;35.80;;;17.27;;
4353;SDS011;11018;51.258;6.806;2022-10-31T09:20:47;39.58;;;18.40;;
4353;SDS011;11018;51.258;6.806;2022-10-31T09:23:14;33.55;;;17.77;;
4353;SDS011;11018;51.258;6.806;2022-10-31T09:25:46;31.92;;;17.23;;
4353;SDS011;11018;51.258;6.806;2022-10-31T09:28:13;41.80;;;18.08;;
4353;SDS011;11018;51.258;6.806;2022-10-31T09:30:40;32.58;;;18.05;;
4353;SDS011;11018;51.258;6.806;2022-10-31T09:33:07;31.58;;;18.10;;
4353;SDS011;11018;51.258;6.806;2022-10-31T09:35:35;36.50;;;17.30;;
4353;SDS011;11018;51.258;6.806;2022-10-31T09:38:02;35.70;;;18.52;;
4353;SDS011;11018;51.258;6.806;2022-10-31T09:40:43;36.20;;;17.90;;
4353;SDS011;11018;51.258;6.806;2022-10-31T09:53:41;33.00;;;18.13;;
4353;SDS011;11018;51.258;6.806;2022-10-31T09:56:15;43.17;;;18.25;;
4353;SDS011;11018;51.258;6.806;2022-10-31T09:58:45;33.72;;;17.38;;
4353;SDS011;11018;51.258;6.806;2022-10-31T10:04:10;35.73;;;17.77;;
4353;SDS011;11018;51.258;6.806;2022-10-31T10:06:56;34.88;;;18.00;;
4353;SDS011;11018;51.258;6.806;2022-10-31T10:09:26;35.30;;;17.98;;
4353;SDS011;11018;51.258;6.806;2022-10-31T10:17:25;43.38;;;19.30;;
4353;SDS011;11018;51.258;6.806;2022-10-31T10:26:26;36.00;;;18.75;;
4353;SDS011;11018;51.258;6.806;2022-10-31T10:31:44;35.60;;;18.17;;
4353;SDS011;11018;51.258;6.806;2022-10-31T10:34:18;34.50;;;17.70;;
4353;SDS011;11018;51.258;6.806;2022-10-31T10:36:56;33.45;;;17.33;;
4353;SDS011;11018;51.258;6.806;2022-10-31T10:39:24;37.45;;;17.40;;
4353;SDS011;11018;51.258;6.806;2022-10-31T10:41:55;48.07;;;16.87;;
4353;SDS011;11018;51.258;6.806;2022-10-31T10:44:43;33.50;;;16.65;;
4353;SDS011;11018;51.258;6.806;2022-10-31T10:47:33;34.47;;;16.52;;
4353;SDS011;11018;51.258;6.806;2022-10-31T10:50:19;30.10;;;16.00;;
4353;SDS011;11018;51.258;6.806;2022-10-31T10:53:06;28.17;;;14.80;;
4353;SDS011;11018;51.258;6.806;2022-10-31T10:56:03;32.95;;;15.30;;
4353;SDS011;11018;51.258;6.806;2022-10-31T10:58:45;44.58;;;15.75;;
4353;SDS011;11018;51.258;6.806;2022-10-31T11:01:11;34.20;;;14.90;;
4353;SDS011;11018;51.258;6.806;2022-10-31T11:03:38;27.52;;;14.40;;
4353;SDS011;11018;51.258;6.806;2022-10-31T11:06:15;32.67;;;15.40;;
4353;SDS011;11018;51.258;6.806;2022-10-31T11:08:42;32.60;;;15.40;;
4353;SDS011;11018;51.258;6.806;2022-10-31T11:11:11;31.53;;;13.90;;
4353;SDS011;11018;51.258;6.806;2022-10-31T11:13:46;31.10;;;14.60;;
4353;SDS011;11018;51.258;6.806;2022-10-31T11:18:53;33.60;;;14.30;;
4353;SDS011;11018;51.258;6.806;2022-10-31T11:21:30;33.92;;;14.27;;
4353;SDS011;11018;51.258;6.806;2022-10-31T11:26:36;28.38;;;15.10;;
4353;SDS011;11018;51.258;6.806;2022-10-31T11:29:03;25.43;;;14.37;;
4353;SDS011;11018;51.258;6.806;2022-10-31T11:31:30;26.85;;;13.75;;
4353;SDS011;11018;51.258;6.806;2022-10-31T11:34:03;33.50;;;14.60;;
4353;SDS011;11018;51.258;6.806;2022-10-31T11:36:32;28.73;;;14.32;;
4353;SDS011;11018;51.258;6.806;2022-10-31T11:39:03;32.33;;;13.80;;
4353;SDS011;11018;51.258;6.806;2022-10-31T11:41:35;31.77;;;13.05;;
4353;SDS011;11018;51.258;6.806;2022-10-31T11:44:09;26.67;;;12.98;;
4353;SDS011;11018;51.258;6.806;2022-10-31T11:46:42;25.83;;;12.60;;
4353;SDS011;11018;51.258;6.806;2022-10-31T11:49:17;31.13;;;13.57;;
4353;SDS011;11018;51.258;6.806;2022-10-31T11:51:49;34.30;;;12.30;;
4353;SDS011;11018;51.258;6.806;2022-10-31T11:54:25;26.25;;;12.25;;
4353;SDS011;11018;51.258;6.806;2022-10-31T11:56:53;22.90;;;12.57;;
4353;SDS011;11018;51.258;6.806;2022-10-31T11:59:30;42.20;;;14.90;;
4353;SDS011;11018;51.258;6.806;2022-10-31T12:01:57;25.93;;;12.03;;
4353;SDS011;11018;51.258;6.806;2022-10-31T12:04:28;22.00;;;11.93;;
4353;SDS011;11018;51.258;6.806;2022-10-31T12:07:06;32.50;;;11.83;;
4353;SDS011;11018;51.258;6.806;2022-10-31T12:09:33;25.60;;;11.00;;
4353;SDS011;11018;51.258;6.806;2022-10-31T12:12:03;26.48;;;10.98;;
4353;SDS011;11018;51.258;6.806;2022-10-31T12:20:21;26.20;;;10.23;;
4353;SDS011;11018;51.258;6.806;2022-10-31T12:26:06;21.63;;;9.77;;
4353;SDS011;11018;51.258;6.806;2022-10-31T12:37:05;24.05;;;8.05;;
4353;SDS011;11018;51.258;6.806;2022-10-31T12:55:06;16.90;;;8.10;;
4353;SDS011;11018;51.258;6.806;2022-10-31T12:57:39;22.50;;;8.07;;
4353;SDS011;11018;51.258;6.806;2022-10-31T13:00:12;17.52;;;7.40;;
4353;SDS011;11018;51.258;6.806;2022-10-31T13:05:49;17.40;;;7.40;;
4353;SDS011;11018;51.258;6.806;2022-10-31T13:10:48;18.08;;;7.60;;
4353;SDS011;11018;51.258;6.806;2022-10-31T13:13:44;15.65;;;7.97;;
4353;SDS011;11018;51.258;6.806;2022-10-31T13:16:30;16.65;;;7.90;;
4353;SDS011;11018;51.258;6.806;2022-10-31T13:19:18;23.08;;;7.57;;
4353;SDS011;11018;51.258;6.806;2022-10-31T13:22:02;19.20;;;8.70;;
4353;SDS011;11018;51.258;6.806;2022-10-31T13:27:44;23.03;;;7.87;;
4353;SDS011;11018;51.258;6.806;2022-10-31T13:30:24;27.80;;;7.80;;
4353;SDS011;11018;51.258;6.806;2022-10-31T13:33:07;17.70;;;7.03;;
4353;SDS011;11018;51.258;6.806;2022-10-31T13:38:25;16.27;;;6.60;;
4353;SDS011;11018;51.258;6.806;2022-10-31T13:41:17;19.67;;;7.20;;
4353;SDS011;11018;51.258;6.806;2022-10-31T13:49:03;19.33;;;6.50;;
4353;SDS011;11018;51.258;6.806;2022-10-31T13:51:46;22.52;;;7.00;;
4353;SDS011;11018;51.258;6.806;2022-10-31T13:54:32;20.02;;;7.85;;
4353;SDS011;11018;51.258;6.806;2022-10-31T13:56:59;21.77;;;7.50;;
4353;SDS011;11018;51.258;6.806;2022-10-31T13:59:26;31.33;;;8.80;;
4353;SDS011;11018;51.258;6.806;2022-10-31T14:02:00;17.40;;;7.40;;
4353;SDS011;11018;51.258;6.806;2022-10-31T14:12:28;17.38;;;7.28;;
4353;SDS011;11018;51.258;6.806;2022-10-31T14:14:55;33.38;;;8.65;;
4353;SDS011;11018;51.258;6.806;2022-10-31T14:18:16;15.87;;;7.20;;
4353;SDS011;11018;51.258;6.806;2022-10-31T14:20:36;18.98;;;9.00;;
4353;SDS011;11018;51.258;6.806;2022-10-31T14:23:12;15.77;;;7.43;;
4353;SDS011;11018;51.258;6.806;2022-10-31T14:25:53;17.17;;;7.40;;
4353;SDS011;11018;51.258;6.806;2022-10-31T14:28:32;22.10;;;8.00;;
4353;SDS011;11018;51.258;6.806;2022-10-31T14:31:00;19.33;;;7.47;;
4353;SDS011;11018;51.258;6.806;2022-10-31T14:33:29;15.40;;;7.30;;
4353;SDS011;11018;51.258;6.806;2022-10-31T14:38:41;16.55;;;6.88;;
4353;SDS011;11018;51.258;6.806;2022-10-31T14:52:47;15.00;;;6.43;;
4353;SDS011;11018;51.258;6.806;2022-10-31T14:55:15;16.77;;;6.90;;
4353;SDS011;11018;51.258;6.806;2022-10-31T14:57:46;17.38;;;7.30;;
4353;SDS011;11018;51.258;6.806;2022-10-31T15:00:19;20.80;;;6.83;;
4353;SDS011;11018;51.258;6.806;2022-10-31T15:02:49;22.00;;;7.30;;
4353;SDS011;11018;51.258;6.806;2022-10-31T15:05:18;16.30;;;6.93;;
4353;SDS011;11018;51.258;6.806;2022-10-31T15:10:21;18.75;;;7.80;;
4353;SDS011;11018;51.258;6.806;2022-10-31T15:12:50;28.13;;;9.48;;
4353;SDS011;11018;51.258;6.806;2022-10-31T15:15:22;18.50;;;7.63;;
4353;SDS011;11018;51.258;6.806;2022-10-31T15:17:51;17.35;;;7.40;;
4353;SDS011;11018;51.258;6.806;2022-10-31T15:20:20;17.40;;;6.65;;
4353;SDS011;11018;51.258;6.806;2022-10-31T15:22:49;18.63;;;6.40;;
4353;SDS011;11018;51.258;6.806;2022-10-31T15:25:17;21.50;;;6.90;;
4353;SDS011;11018;51.258;6.806;2022-10-31T15:27:45;27.48;;;7.85;;
4353;SDS011;11018;51.258;6.806;2022-10-31T15:32:48;22.92;;;7.38;;
4353;SDS011;11018;51.258;6.806;2022-10-31T15:37:51;22.67;;;8.75;;
4353;SDS011;11018;51.258;6.806;2022-10-31T15:40:18;15.55;;;6.03;;
4353;SDS011;11018;51.258;6.806;2022-10-31T15:42:52;24.63;;;6.60;;
4353;SDS011;11018;51.258;6.806;2022-10-31T15:45:21;15.98;;;5.75;;
4353;SDS011;11018;51.258;6.806;2022-10-31T15:47:53;27.35;;;7.55;;
4353;SDS011;11018;51.258;6.806;2022-10-31T15:53:03;16.33;;;6.47;;
4353;SDS011;11018;51.258;6.806;2022-10-31T15:55:31;13.35;;;6.85;;
4353;SDS011;11018;51.258;6.806;2022-10-31T15:58:02;23.67;;;6.77;;
4353;SDS011;11018;51.258;6.806;2022-10-31T16:00:38;16.23;;;6.75;;
4353;SDS011;11018;51.258;6.806;2022-10-31T16:03:05;15.48;;;6.30;;
4353;SDS011;11018;51.258;6.806;2022-10-31T16:05:34;17.85;;;7.00;;
4353;SDS011;11018;51.258;6.806;2022-10-31T16:13:37;14.85;;;6.80;;
4353;SDS011;11018;51.258;6.806;2022-10-31T16:16:20;21.45;;;6.75;;
4353;SDS011;11018;51.258;6.806;2022-10-31T16:18:46;18.40;;;7.03;;
4353;SDS011;11018;51.258;6.806;2022-10-31T16:21:14;16.48;;;6.53;;
4353;SDS011;11018;51.258;6.806;2022-10-31T16:23:44;17.33;;;6.10;;
4353;SDS011;11018;51.258;6.806;2022-10-31T16:26:14;20.20;;;6.53;;
4353;SDS011;11018;51.258;6.806;2022-10-31T16:28:50;27.83;;;7.60;;
4353;SDS011;11018;51.258;6.806;2022-10-31T16:31:54;17.13;;;6.93;;
4353;SDS011;11018;51.258;6.806;2022-10-31T16:34:22;19.80;;;7.23;;
4353;SDS011;11018;51.258;6.806;2022-10-31T16:36:48;15.50;;;6.50;;
4353;SDS011;11018;51.258;6.806;2022-10-31T16:39:13;22.52;;;7.18;;
4353;SDS011;11018;51.258;6.806;2022-10-31T16:41:43;14.45;;;5.78;;
4353;SDS011;11018;51.258;6.806;2022-10-31T16:44:23;14.27;;;7.47;;
4353;SDS011;11018;51.258;6.806;2022-10-31T16:47:06;22.65;;;6.68;;
4353;SDS011;11018;51.258;6.806;2022-10-31T16:49:40;26.55;;;9.88;;
4353;SDS011;11018;51.258;6.806;2022-10-31T16:52:07;20.75;;;8.18;;
4353;SDS011;11018;51.258;6.806;2022-10-31T16:54:32;18.23;;;6.97;;
4353;SDS011;11018;51.258;6.806;2022-10-31T16:56:58;21.50;;;6.70;;
4353;SDS011;11018;51.258;6.806;2022-10-31T16:59:24;19.58;;;6.32;;
4353;SDS011;11018;51.258;6.806;2022-10-31T17:01:51;13.35;;;6.60;;
4353;SDS011;11018;51.258;6.806;2022-10-31T17:04:17;17.77;;;6.60;;
4353;SDS011;11018;51.258;6.806;2022-10-31T17:06:42;18.63;;;6.20;;
4353;SDS011;11018;51.258;6.806;2022-10-31T17:09:08;17.83;;;6.10;;
4353;SDS011;11018;51.258;6.806;2022-10-31T17:11:34;17.02;;;6.65;;